sensor_id;sensor_type;location;lat;lon;timestamp;P1;durP1;ratioP1;P2;durP2;ratioP2
40489;SDS011;26196;52.302;10.572;2023-03-01T00:01:00;6.22;;;4.13;;
40489;SDS011;26196;52.302;10.572;2023-03-01T00:05:05;4.63;;;3.28;;
40489;SDS011;26196;52.302;10.572;2023-03-01T00:09:07;5.45;;;3.60;;
40489;SDS011;26196;52.302;10.572;2023-03-01T00:13:07;5.60;;;3.25;;
40489;SDS011;26196;52.302;10.572;2023-03-01T00:17:08;6.07;;;3.10;;
40489;SDS011;26196;52.302;10.572;2023-03-01T00:21:08;6.72;;;3.58;;
40489;SDS011;26196;52.302;10.572;2023-03-01T00:25:09;5.43;;;3.03;;
40489;SDS011;26196;52.302;10.572;2023-03-01T00:29:09;5.32;;;3.30;;
40489;SDS011;26196;52.302;10.572;2023-03-01T00:33:10;4.65;;;3.03;;
40489;SDS011;26196;52.302;10.572;2023-03-01T00:37:12;4.50;;;3.17;;
40489;SDS011;26196;52.302;10.572;2023-03-01T00:41:13;5.35;;;3.40;;
40489;SDS011;26196;52.302;10.572;2023-03-01T00:45:16;4.90;;;3.22;;
40489;SDS011;26196;52.302;10.572;2023-03-01T00:49:16;4.45;;;3.25;;
40489;SDS011;26196;52.302;10.572;2023-03-01T00:53:17;4.30;;;3.10;;
40489;SDS011;26196;52.302;10.572;2023-03-01T01:01:24;4.93;;;3.07;;
40489;SDS011;26196;52.302;10.572;2023-03-01T01:09:46;5.07;;;2.85;;
40489;SDS011;26196;52.302;10.572;2023-03-01T01:13:46;5.55;;;2.60;;
40489;SDS011;26196;52.302;10.572;2023-03-01T01:17:50;3.53;;;2.80;;
40489;SDS011;26196;52.302;10.572;2023-03-01T01:21:50;4.07;;;3.00;;
40489;SDS011;26196;52.302;10.572;2023-03-01T01:25:51;3.72;;;2.47;;
40489;SDS011;26196;52.302;10.572;2023-03-01T01:33:56;5.32;;;2.67;;
40489;SDS011;26196;52.302;10.572;2023-03-01T01:37:57;5.00;;;2.90;;
40489;SDS011;26196;52.302;10.572;2023-03-01T01:42:05;4.50;;;2.72;;
40489;SDS011;26196;52.302;10.572;2023-03-01T01:46:16;4.97;;;2.35;;
40489;SDS011;26196;52.302;10.572;2023-03-01T01:50:23;4.82;;;2.92;;
40489;SDS011;26196;52.302;10.572;2023-03-01T01:54:38;4.18;;;3.05;;
40489;SDS011;26196;52.302;10.572;2023-03-01T01:58:53;4.40;;;3.05;;
40489;SDS011;26196;52.302;10.572;2023-03-01T02:07:20;3.65;;;2.70;;
40489;SDS011;26196;52.302;10.572;2023-03-01T02:11:24;4.97;;;3.13;;
40489;SDS011;26196;52.302;10.572;2023-03-01T02:15:26;3.28;;;2.25;;
40489;SDS011;26196;52.302;10.572;2023-03-01T02:19:31;4.15;;;3.75;;
40489;SDS011;26196;52.302;10.572;2023-03-01T02:23:58;5.40;;;3.63;;
40489;SDS011;26196;52.302;10.572;2023-03-01T02:32:05;4.97;;;3.47;;
40489;SDS011;26196;52.302;10.572;2023-03-01T02:36:08;6.43;;;3.10;;
40489;SDS011;26196;52.302;10.572;2023-03-01T02:40:14;5.85;;;3.38;;
40489;SDS011;26196;52.302;10.572;2023-03-01T02:44:17;3.95;;;2.58;;
40489;SDS011;26196;52.302;10.572;2023-03-01T02:48:18;3.90;;;2.63;;
40489;SDS011;26196;52.302;10.572;2023-03-01T02:52:26;4.05;;;2.50;;
40489;SDS011;26196;52.302;10.572;2023-03-01T02:56:47;3.88;;;3.20;;
40489;SDS011;26196;52.302;10.572;2023-03-01T03:00:49;5.47;;;2.60;;
40489;SDS011;26196;52.302;10.572;2023-03-01T03:04:50;2.88;;;2.22;;
40489;SDS011;26196;52.302;10.572;2023-03-01T03:08:50;3.97;;;3.00;;
40489;SDS011;26196;52.302;10.572;2023-03-01T03:12:53;5.20;;;2.55;;
40489;SDS011;26196;52.302;10.572;2023-03-01T03:16:55;3.80;;;2.45;;
40489;SDS011;26196;52.302;10.572;2023-03-01T03:20:55;3.47;;;2.35;;
40489;SDS011;26196;52.302;10.572;2023-03-01T03:28:59;5.68;;;2.55;;
40489;SDS011;26196;52.302;10.572;2023-03-01T03:33:00;4.18;;;2.60;;
40489;SDS011;26196;52.302;10.572;2023-03-01T03:37:03;4.75;;;2.40;;
40489;SDS011;26196;52.302;10.572;2023-03-01T03:41:23;3.00;;;2.10;;
40489;SDS011;26196;52.302;10.572;2023-03-01T03:45:24;4.35;;;2.45;;
40489;SDS011;26196;52.302;10.572;2023-03-01T03:49:24;5.45;;;2.58;;
40489;SDS011;26196;52.302;10.572;2023-03-01T03:53:26;3.78;;;2.75;;
40489;SDS011;26196;52.302;10.572;2023-03-01T03:57:29;4.63;;;2.33;;
40489;SDS011;26196;52.302;10.572;2023-03-01T04:01:29;6.30;;;2.67;;
40489;SDS011;26196;52.302;10.572;2023-03-01T04:05:31;3.28;;;2.38;;
40489;SDS011;26196;52.302;10.572;2023-03-01T04:09:32;4.55;;;3.08;;
40489;SDS011;26196;52.302;10.572;2023-03-01T04:13:32;4.10;;;2.40;;
40489;SDS011;26196;52.302;10.572;2023-03-01T04:17:32;4.40;;;3.00;;
40489;SDS011;26196;52.302;10.572;2023-03-01T04:21:34;5.90;;;2.70;;
40489;SDS011;26196;52.302;10.572;2023-03-01T04:25:39;5.80;;;2.72;;
40489;SDS011;26196;52.302;10.572;2023-03-01T04:29:41;5.60;;;2.40;;
40489;SDS011;26196;52.302;10.572;2023-03-01T04:38:09;4.13;;;2.55;;
40489;SDS011;26196;52.302;10.572;2023-03-01T04:42:09;6.18;;;3.65;;
40489;SDS011;26196;52.302;10.572;2023-03-01T04:46:13;5.32;;;2.60;;
40489;SDS011;26196;52.302;10.572;2023-03-01T04:50:16;6.20;;;2.42;;
40489;SDS011;26196;52.302;10.572;2023-03-01T04:54:17;6.22;;;2.92;;
40489;SDS011;26196;52.302;10.572;2023-03-01T04:58:17;6.60;;;3.20;;
40489;SDS011;26196;52.302;10.572;2023-03-01T05:02:17;8.48;;;3.47;;
40489;SDS011;26196;52.302;10.572;2023-03-01T05:06:19;4.38;;;2.67;;
40489;SDS011;26196;52.302;10.572;2023-03-01T05:10:20;5.07;;;2.65;;
40489;SDS011;26196;52.302;10.572;2023-03-01T05:14:20;9.70;;;3.42;;
40489;SDS011;26196;52.302;10.572;2023-03-01T05:18:22;6.32;;;2.72;;
40489;SDS011;26196;52.302;10.572;2023-03-01T05:22:41;4.88;;;2.67;;
40489;SDS011;26196;52.302;10.572;2023-03-01T05:26:41;5.00;;;2.77;;
40489;SDS011;26196;52.302;10.572;2023-03-01T05:35:39;5.10;;;2.50;;
40489;SDS011;26196;52.302;10.572;2023-03-01T05:43:53;6.40;;;2.92;;
40489;SDS011;26196;52.302;10.572;2023-03-01T05:47:54;5.50;;;2.88;;
40489;SDS011;26196;52.302;10.572;2023-03-01T05:56:24;6.28;;;2.75;;
40489;SDS011;26196;52.302;10.572;2023-03-01T06:00:25;3.73;;;2.63;;
40489;SDS011;26196;52.302;10.572;2023-03-01T06:04:25;4.53;;;2.70;;
40489;SDS011;26196;52.302;10.572;2023-03-01T06:08:26;4.85;;;2.95;;
40489;SDS011;26196;52.302;10.572;2023-03-01T06:12:32;6.25;;;3.15;;
40489;SDS011;26196;52.302;10.572;2023-03-01T06:16:33;3.72;;;2.35;;
40489;SDS011;26196;52.302;10.572;2023-03-01T06:20:35;3.65;;;2.55;;
40489;SDS011;26196;52.302;10.572;2023-03-01T06:24:35;5.03;;;2.40;;
40489;SDS011;26196;52.302;10.572;2023-03-01T06:28:36;4.00;;;2.42;;
40489;SDS011;26196;52.302;10.572;2023-03-01T06:32:37;5.88;;;2.38;;
40489;SDS011;26196;52.302;10.572;2023-03-01T06:36:37;4.25;;;2.85;;
40489;SDS011;26196;52.302;10.572;2023-03-01T06:40:39;3.78;;;2.45;;
40489;SDS011;26196;52.302;10.572;2023-03-01T06:44:39;5.18;;;3.42;;
40489;SDS011;26196;52.302;10.572;2023-03-01T06:48:40;7.28;;;4.60;;
40489;SDS011;26196;52.302;10.572;2023-03-01T06:52:41;8.77;;;4.28;;
40489;SDS011;26196;52.302;10.572;2023-03-01T06:56:49;9.40;;;4.55;;
40489;SDS011;26196;52.302;10.572;2023-03-01T07:04:50;7.18;;;4.30;;
40489;SDS011;26196;52.302;10.572;2023-03-01T07:08:51;7.40;;;4.32;;
40489;SDS011;26196;52.302;10.572;2023-03-01T07:12:54;6.72;;;3.67;;
40489;SDS011;26196;52.302;10.572;2023-03-01T07:16:55;6.75;;;4.00;;
40489;SDS011;26196;52.302;10.572;2023-03-01T07:20:56;7.72;;;3.97;;
40489;SDS011;26196;52.302;10.572;2023-03-01T07:24:57;6.22;;;3.45;;
40489;SDS011;26196;52.302;10.572;2023-03-01T07:29:01;5.20;;;3.25;;
40489;SDS011;26196;52.302;10.572;2023-03-01T07:33:04;5.07;;;3.78;;
40489;SDS011;26196;52.302;10.572;2023-03-01T07:45:22;6.10;;;3.13;;
40489;SDS011;26196;52.302;10.572;2023-03-01T07:49:22;5.65;;;3.00;;
40489;SDS011;26196;52.302;10.572;2023-03-01T07:53:23;5.93;;;2.97;;
40489;SDS011;26196;52.302;10.572;2023-03-01T07:57:24;5.25;;;3.00;;
40489;SDS011;26196;52.302;10.572;2023-03-01T08:01:25;4.68;;;3.03;;
40489;SDS011;26196;52.302;10.572;2023-03-01T08:09:29;8.48;;;3.47;;
40489;SDS011;26196;52.302;10.572;2023-03-01T08:18:19;4.68;;;2.65;;
40489;SDS011;26196;52.302;10.572;2023-03-01T08:22:20;5.57;;;2.85;;
40489;SDS011;26196;52.302;10.572;2023-03-01T08:26:20;10.77;;;4.13;;
40489;SDS011;26196;52.302;10.572;2023-03-01T08:30:31;6.57;;;2.78;;
40489;SDS011;26196;52.302;10.572;2023-03-01T08:34:31;4.70;;;2.53;;
40489;SDS011;26196;52.302;10.572;2023-03-01T08:38:34;5.85;;;2.60;;
40489;SDS011;26196;52.302;10.572;2023-03-01T08:42:42;7.15;;;2.85;;
40489;SDS011;26196;52.302;10.572;2023-03-01T08:46:43;4.35;;;2.30;;
40489;SDS011;26196;52.302;10.572;2023-03-01T08:50:45;3.42;;;2.45;;
40489;SDS011;26196;52.302;10.572;2023-03-01T08:54:52;4.43;;;2.40;;
40489;SDS011;26196;52.302;10.572;2023-03-01T08:58:56;3.40;;;2.30;;
40489;SDS011;26196;52.302;10.572;2023-03-01T09:02:57;5.20;;;2.22;;
40489;SDS011;26196;52.302;10.572;2023-03-01T09:06:57;5.50;;;2.60;;
40489;SDS011;26196;52.302;10.572;2023-03-01T09:10:57;4.95;;;2.47;;
40489;SDS011;26196;52.302;10.572;2023-03-01T09:19:23;3.63;;;2.20;;
40489;SDS011;26196;52.302;10.572;2023-03-01T09:23:24;5.85;;;2.75;;
40489;SDS011;26196;52.302;10.572;2023-03-01T09:27:24;4.22;;;2.53;;
40489;SDS011;26196;52.302;10.572;2023-03-01T09:31:26;3.58;;;2.30;;
40489;SDS011;26196;52.302;10.572;2023-03-01T09:39:47;2.38;;;1.60;;
40489;SDS011;26196;52.302;10.572;2023-03-01T09:43:49;3.45;;;1.80;;
40489;SDS011;26196;52.302;10.572;2023-03-01T09:48:05;4.13;;;2.08;;
40489;SDS011;26196;52.302;10.572;2023-03-01T09:52:21;6.63;;;2.20;;
40489;SDS011;26196;52.302;10.572;2023-03-01T09:56:41;4.97;;;2.60;;
40489;SDS011;26196;52.302;10.572;2023-03-01T10:00:48;3.13;;;1.80;;
40489;SDS011;26196;52.302;10.572;2023-03-01T10:04:50;4.25;;;1.50;;
40489;SDS011;26196;52.302;10.572;2023-03-01T10:12:58;3.03;;;1.48;;
40489;SDS011;26196;52.302;10.572;2023-03-01T10:21:45;3.15;;;1.40;;
40489;SDS011;26196;52.302;10.572;2023-03-01T10:30:38;2.65;;;1.80;;
40489;SDS011;26196;52.302;10.572;2023-03-01T10:38:51;2.33;;;1.77;;
40489;SDS011;26196;52.302;10.572;2023-03-01T10:42:54;2.65;;;1.65;;
40489;SDS011;26196;52.302;10.572;2023-03-01T10:46:59;4.63;;;1.63;;
40489;SDS011;26196;52.302;10.572;2023-03-01T10:55:19;3.00;;;1.37;;
40489;SDS011;26196;52.302;10.572;2023-03-01T10:59:28;2.03;;;1.45;;
40489;SDS011;26196;52.302;10.572;2023-03-01T11:03:37;2.42;;;1.55;;
40489;SDS011;26196;52.302;10.572;2023-03-01T11:07:48;3.00;;;1.30;;
40489;SDS011;26196;52.302;10.572;2023-03-01T11:11:54;3.53;;;1.30;;
40489;SDS011;26196;52.302;10.572;2023-03-01T11:16:14;2.72;;;1.92;;
40489;SDS011;26196;52.302;10.572;2023-03-01T11:24:41;2.60;;;1.38;;
40489;SDS011;26196;52.302;10.572;2023-03-01T11:28:53;1.63;;;1.20;;
40489;SDS011;26196;52.302;10.572;2023-03-01T11:37:10;3.53;;;1.20;;
40489;SDS011;26196;52.302;10.572;2023-03-01T11:41:25;2.15;;;1.40;;
40489;SDS011;26196;52.302;10.572;2023-03-01T11:45:36;3.28;;;1.60;;
40489;SDS011;26196;52.302;10.572;2023-03-01T12:02:45;3.78;;;1.42;;
40489;SDS011;26196;52.302;10.572;2023-03-01T12:07:01;2.25;;;1.08;;
40489;SDS011;26196;52.302;10.572;2023-03-01T12:20:15;2.42;;;1.30;;
40489;SDS011;26196;52.302;10.572;2023-03-01T12:24:45;2.30;;;1.20;;
40489;SDS011;26196;52.302;10.572;2023-03-01T12:37:56;3.55;;;1.42;;
40489;SDS011;26196;52.302;10.572;2023-03-01T12:51:17;3.00;;;1.67;;
40489;SDS011;26196;52.302;10.572;2023-03-01T12:55:33;2.83;;;1.85;;
40489;SDS011;26196;52.302;10.572;2023-03-01T12:59:47;2.28;;;1.17;;
40489;SDS011;26196;52.302;10.572;2023-03-01T13:08:58;1.52;;;1.00;;
40489;SDS011;26196;52.302;10.572;2023-03-01T13:13:11;1.63;;;0.98;;
40489;SDS011;26196;52.302;10.572;2023-03-01T13:17:30;1.83;;;1.30;;
40489;SDS011;26196;52.302;10.572;2023-03-01T13:39:27;1.80;;;1.10;;
40489;SDS011;26196;52.302;10.572;2023-03-01T13:43:38;2.15;;;1.05;;
40489;SDS011;26196;52.302;10.572;2023-03-01T13:47:58;2.83;;;1.40;;
40489;SDS011;26196;52.302;10.572;2023-03-01T13:52:01;1.80;;;0.93;;
40489;SDS011;26196;52.302;10.572;2023-03-01T14:00:36;1.98;;;1.20;;
40489;SDS011;26196;52.302;10.572;2023-03-01T14:09:10;1.45;;;1.23;;
40489;SDS011;26196;52.302;10.572;2023-03-01T14:22:35;2.03;;;1.23;;
40489;SDS011;26196;52.302;10.572;2023-03-01T14:26:36;1.52;;;0.70;;
40489;SDS011;26196;52.302;10.572;2023-03-01T14:42:59;1.45;;;0.98;;
40489;SDS011;26196;52.302;10.572;2023-03-01T14:47:01;3.20;;;1.40;;
40489;SDS011;26196;52.302;10.572;2023-03-01T14:55:55;3.25;;;1.20;;
40489;SDS011;26196;52.302;10.572;2023-03-01T15:00:05;3.28;;;1.38;;
40489;SDS011;26196;52.302;10.572;2023-03-01T15:04:08;3.28;;;1.30;;
40489;SDS011;26196;52.302;10.572;2023-03-01T15:08:16;3.17;;;1.17;;
40489;SDS011;26196;52.302;10.572;2023-03-01T15:20:42;2.38;;;1.20;;
40489;SDS011;26196;52.302;10.572;2023-03-01T15:24:50;1.50;;;1.00;;
40489;SDS011;26196;52.302;10.572;2023-03-01T15:28:52;2.13;;;1.27;;
40489;SDS011;26196;52.302;10.572;2023-03-01T15:37:36;1.73;;;1.00;;
40489;SDS011;26196;52.302;10.572;2023-03-01T15:45:55;3.45;;;1.20;;
40489;SDS011;26196;52.302;10.572;2023-03-01T15:49:57;4.55;;;1.10;;
40489;SDS011;26196;52.302;10.572;2023-03-01T15:54:03;2.88;;;1.15;;
40489;SDS011;26196;52.302;10.572;2023-03-01T15:58:15;1.92;;;1.20;;
40489;SDS011;26196;52.302;10.572;2023-03-01T16:02:17;2.45;;;1.02;;
40489;SDS011;26196;52.302;10.572;2023-03-01T16:06:20;2.42;;;1.17;;
40489;SDS011;26196;52.302;10.572;2023-03-01T16:10:21;4.45;;;1.15;;
40489;SDS011;26196;52.302;10.572;2023-03-01T16:14:23;1.75;;;1.08;;
40489;SDS011;26196;52.302;10.572;2023-03-01T16:18:25;1.90;;;1.20;;
40489;SDS011;26196;52.302;10.572;2023-03-01T16:22:26;2.10;;;1.17;;
40489;SDS011;26196;52.302;10.572;2023-03-01T16:26:27;3.03;;;1.50;;
40489;SDS011;26196;52.302;10.572;2023-03-01T16:30:29;2.90;;;1.20;;
40489;SDS011;26196;52.302;10.572;2023-03-01T16:34:33;1.30;;;0.85;;
40489;SDS011;26196;52.302;10.572;2023-03-01T16:38:33;2.33;;;1.40;;
40489;SDS011;26196;52.302;10.572;2023-03-01T16:42:36;3.08;;;1.20;;
40489;SDS011;26196;52.302;10.572;2023-03-01T16:46:37;2.33;;;1.20;;
40489;SDS011;26196;52.302;10.572;2023-03-01T16:50:37;1.63;;;1.20;;
40489;SDS011;26196;52.302;10.572;2023-03-01T16:54:38;2.20;;;1.20;;
40489;SDS011;26196;52.302;10.572;2023-03-01T16:58:39;2.97;;;1.52;;
40489;SDS011;26196;52.302;10.572;2023-03-01T17:02:40;4.13;;;1.52;;
40489;SDS011;26196;52.302;10.572;2023-03-01T17:06:41;4.03;;;1.10;;
40489;SDS011;26196;52.302;10.572;2023-03-01T17:10:50;3.10;;;1.65;;
40489;SDS011;26196;52.302;10.572;2023-03-01T17:14:53;4.32;;;1.60;;
40489;SDS011;26196;52.302;10.572;2023-03-01T17:23:05;3.08;;;1.70;;
40489;SDS011;26196;52.302;10.572;2023-03-01T17:27:13;3.80;;;1.65;;
40489;SDS011;26196;52.302;10.572;2023-03-01T17:35:25;2.45;;;1.55;;
40489;SDS011;26196;52.302;10.572;2023-03-01T17:39:26;2.95;;;1.67;;
40489;SDS011;26196;52.302;10.572;2023-03-01T17:47:45;7.53;;;2.00;;
40489;SDS011;26196;52.302;10.572;2023-03-01T17:51:45;3.22;;;1.67;;
40489;SDS011;26196;52.302;10.572;2023-03-01T17:55:49;2.95;;;1.75;;
40489;SDS011;26196;52.302;10.572;2023-03-01T18:00:03;3.40;;;1.73;;
40489;SDS011;26196;52.302;10.572;2023-03-01T18:04:05;4.15;;;2.13;;
40489;SDS011;26196;52.302;10.572;2023-03-01T18:08:06;3.67;;;1.63;;
40489;SDS011;26196;52.302;10.572;2023-03-01T18:12:08;3.38;;;1.60;;
40489;SDS011;26196;52.302;10.572;2023-03-01T18:16:11;3.45;;;1.85;;
40489;SDS011;26196;52.302;10.572;2023-03-01T18:20:14;3.40;;;1.80;;
40489;SDS011;26196;52.302;10.572;2023-03-01T18:24:15;3.33;;;2.33;;
40489;SDS011;26196;52.302;10.572;2023-03-01T18:32:36;4.68;;;2.30;;
40489;SDS011;26196;52.302;10.572;2023-03-01T18:36:38;3.22;;;2.15;;
40489;SDS011;26196;52.302;10.572;2023-03-01T18:40:40;3.58;;;1.95;;
40489;SDS011;26196;52.302;10.572;2023-03-01T18:44:41;3.10;;;1.70;;
40489;SDS011;26196;52.302;10.572;2023-03-01T18:48:41;5.97;;;1.98;;
40489;SDS011;26196;52.302;10.572;2023-03-01T18:52:51;7.38;;;1.55;;
40489;SDS011;26196;52.302;10.572;2023-03-01T18:56:53;5.57;;;1.67;;
40489;SDS011;26196;52.302;10.572;2023-03-01T19:00:53;4.05;;;2.08;;
40489;SDS011;26196;52.302;10.572;2023-03-01T19:04:53;5.95;;;2.00;;
40489;SDS011;26196;52.302;10.572;2023-03-01T19:09:06;3.00;;;2.20;;
40489;SDS011;26196;52.302;10.572;2023-03-01T19:13:07;4.15;;;2.22;;
40489;SDS011;26196;52.302;10.572;2023-03-01T19:17:07;5.50;;;2.08;;
40489;SDS011;26196;52.302;10.572;2023-03-01T19:21:08;3.85;;;2.05;;
40489;SDS011;26196;52.302;10.572;2023-03-01T19:25:10;4.93;;;2.63;;
40489;SDS011;26196;52.302;10.572;2023-03-01T19:29:11;3.50;;;2.35;;
40489;SDS011;26196;52.302;10.572;2023-03-01T19:33:12;5.50;;;2.83;;
40489;SDS011;26196;52.302;10.572;2023-03-01T19:37:12;7.30;;;3.63;;
40489;SDS011;26196;52.302;10.572;2023-03-01T19:41:14;4.45;;;2.72;;
40489;SDS011;26196;52.302;10.572;2023-03-01T19:45:17;6.35;;;2.78;;
40489;SDS011;26196;52.302;10.572;2023-03-01T19:49:17;4.63;;;2.13;;
40489;SDS011;26196;52.302;10.572;2023-03-01T19:53:18;4.07;;;2.65;;
40489;SDS011;26196;52.302;10.572;2023-03-01T19:57:19;4.25;;;2.80;;
40489;SDS011;26196;52.302;10.572;2023-03-01T20:01:20;5.32;;;2.70;;
40489;SDS011;26196;52.302;10.572;2023-03-01T20:05:21;4.47;;;2.40;;
40489;SDS011;26196;52.302;10.572;2023-03-01T20:09:24;5.30;;;2.72;;
40489;SDS011;26196;52.302;10.572;2023-03-01T20:13:25;4.22;;;2.60;;
40489;SDS011;26196;52.302;10.572;2023-03-01T20:17:33;4.40;;;2.40;;
40489;SDS011;26196;52.302;10.572;2023-03-01T20:21:34;4.30;;;2.70;;
40489;SDS011;26196;52.302;10.572;2023-03-01T20:25:40;3.63;;;2.55;;
40489;SDS011;26196;52.302;10.572;2023-03-01T20:29:47;6.43;;;3.45;;
40489;SDS011;26196;52.302;10.572;2023-03-01T20:37:56;6.53;;;3.53;;
40489;SDS011;26196;52.302;10.572;2023-03-01T20:41:56;4.25;;;2.95;;
40489;SDS011;26196;52.302;10.572;2023-03-01T20:45:57;6.73;;;3.30;;
40489;SDS011;26196;52.302;10.572;2023-03-01T20:49:57;4.07;;;3.00;;
40489;SDS011;26196;52.302;10.572;2023-03-01T20:54:12;6.32;;;3.70;;
40489;SDS011;26196;52.302;10.572;2023-03-01T20:58:22;4.85;;;2.78;;
40489;SDS011;26196;52.302;10.572;2023-03-01T21:02:22;6.00;;;2.55;;
40489;SDS011;26196;52.302;10.572;2023-03-01T21:06:25;5.75;;;3.25;;
40489;SDS011;26196;52.302;10.572;2023-03-01T21:10:25;6.53;;;3.60;;
40489;SDS011;26196;52.302;10.572;2023-03-01T21:14:39;6.25;;;4.07;;
40489;SDS011;26196;52.302;10.572;2023-03-01T21:18:43;6.20;;;4.47;;
40489;SDS011;26196;52.302;10.572;2023-03-01T21:26:48;8.23;;;4.38;;
40489;SDS011;26196;52.302;10.572;2023-03-01T21:30:48;8.10;;;4.75;;
40489;SDS011;26196;52.302;10.572;2023-03-01T21:34:48;6.25;;;4.18;;
40489;SDS011;26196;52.302;10.572;2023-03-01T21:38:49;8.88;;;4.45;;
40489;SDS011;26196;52.302;10.572;2023-03-01T21:42:50;6.90;;;4.75;;
40489;SDS011;26196;52.302;10.572;2023-03-01T21:46:51;6.93;;;4.40;;
40489;SDS011;26196;52.302;10.572;2023-03-01T21:50:56;7.43;;;4.57;;
40489;SDS011;26196;52.302;10.572;2023-03-01T21:54:57;8.45;;;5.00;;
40489;SDS011;26196;52.302;10.572;2023-03-01T21:59:04;5.70;;;3.65;;
40489;SDS011;26196;52.302;10.572;2023-03-01T22:03:09;5.47;;;3.60;;
40489;SDS011;26196;52.302;10.572;2023-03-01T22:07:10;6.53;;;4.13;;
40489;SDS011;26196;52.302;10.572;2023-03-01T22:15:14;6.70;;;3.65;;
40489;SDS011;26196;52.302;10.572;2023-03-01T22:19:26;7.45;;;3.88;;
40489;SDS011;26196;52.302;10.572;2023-03-01T22:23:27;5.63;;;3.38;;
40489;SDS011;26196;52.302;10.572;2023-03-01T22:27:27;5.85;;;3.45;;
40489;SDS011;26196;52.302;10.572;2023-03-01T22:31:29;5.85;;;3.90;;
40489;SDS011;26196;52.302;10.572;2023-03-01T22:35:30;5.38;;;3.88;;
40489;SDS011;26196;52.302;10.572;2023-03-01T22:39:30;6.53;;;3.60;;
40489;SDS011;26196;52.302;10.572;2023-03-01T22:43:34;6.25;;;4.10;;
40489;SDS011;26196;52.302;10.572;2023-03-01T22:47:35;4.50;;;3.10;;
40489;SDS011;26196;52.302;10.572;2023-03-01T22:55:48;5.40;;;3.65;;
40489;SDS011;26196;52.302;10.572;2023-03-01T22:59:49;6.22;;;3.80;;
40489;SDS011;26196;52.302;10.572;2023-03-01T23:03:49;5.20;;;3.40;;
40489;SDS011;26196;52.302;10.572;2023-03-01T23:11:54;7.30;;;3.42;;
40489;SDS011;26196;52.302;10.572;2023-03-01T23:15:57;5.07;;;3.60;;
40489;SDS011;26196;52.302;10.572;2023-03-01T23:19:58;5.32;;;3.75;;
40489;SDS011;26196;52.302;10.572;2023-03-01T23:24:00;7.68;;;4.72;;
40489;SDS011;26196;52.302;10.572;2023-03-01T23:28:13;4.82;;;2.78;;
40489;SDS011;26196;52.302;10.572;2023-03-01T23:32:13;5.53;;;3.80;;
40489;SDS011;26196;52.302;10.572;2023-03-01T23:44:24;6.63;;;3.50;;
40489;SDS011;26196;52.302;10.572;2023-03-01T23:48:24;3.40;;;2.50;;
40489;SDS011;26196;52.302;10.572;2023-03-01T23:52:24;5.40;;;3.35;;
40489;SDS011;26196;52.302;10.572;2023-03-01T23:56:29;6.03;;;3.97;;
